createdAt,value
2018-08-19T00:00:18.215Z,94.10
2018-08-19T00:02:45.312Z,95.06
2018-08-19T00:05:16.043Z,94.97
2018-08-19T00:07:43.093Z,95.59
2018-08-19T00:10:10.158Z,95.30
2018-08-19T00:12:39.263Z,95.45
2018-08-19T00:15:06.306Z,95.73
2018-08-19T00:17:33.783Z,96.22
2018-08-19T00:20:00.819Z,96.26
2018-08-19T00:22:27.815Z,95.65
2018-08-19T00:24:54.831Z,96.58
2018-08-19T00:27:21.944Z,97.14
2018-08-19T00:29:49.606Z,96.97
2018-08-19T00:32:16.624Z,96.88
2018-08-19T00:34:43.919Z,97.09
2018-08-19T00:37:11.063Z,97.34
2018-08-19T00:39:38.833Z,97.33
2018-08-19T00:42:05.918Z,97.86
2018-08-19T00:44:33.311Z,98.07
2018-08-19T00:47:00.356Z,98.21
2018-08-19T00:49:27.617Z,98.18
2018-08-19T00:51:58.556Z,98.14
2018-08-19T00:54:26.203Z,98.28
2018-08-19T00:56:55.476Z,98.33
2018-08-19T00:59:22.532Z,98.27
2018-08-19T01:01:49.615Z,98.58
2018-08-19T01:04:16.788Z,98.32
2018-08-19T01:06:49.480Z,98.81
2018-08-19T01:09:16.579Z,98.58
2018-08-19T01:11:43.679Z,98.48
2018-08-19T01:14:12.311Z,98.58
2018-08-19T01:16:39.527Z,98.37
2018-08-19T01:19:07.047Z,98.59
2018-08-19T01:21:34.052Z,98.65
2018-08-19T01:24:03.988Z,98.46
2018-08-19T01:26:32.477Z,98.86
2018-08-19T01:28:59.499Z,98.35
2018-08-19T01:31:26.896Z,98.23
2018-08-19T01:33:53.931Z,97.92
2018-08-19T01:36:20.933Z,97.76
2018-08-19T01:38:48.312Z,98.16
2018-08-19T01:41:15.300Z,97.13
2018-08-19T01:43:54.021Z,97.20
2018-08-19T01:46:20.999Z,96.91
2018-08-19T01:48:49.678Z,97.55
2018-08-19T01:51:16.735Z,96.98
2018-08-19T01:53:43.839Z,97.55
2018-08-19T01:56:11.010Z,97.14
2018-08-19T01:58:42.648Z,97.23
2018-08-19T02:01:09.619Z,97.37
2018-08-19T02:03:36.928Z,96.75
2018-08-19T02:06:03.977Z,97.20
2018-08-19T02:08:31.051Z,96.86
2018-08-19T02:10:58.144Z,97.17
2018-08-19T02:13:25.146Z,97.14
2018-08-19T02:15:52.143Z,96.59
2018-08-19T02:18:19.501Z,96.44
2018-08-19T02:20:46.637Z,96.98
2018-08-19T02:23:13.662Z,97.04
2018-08-19T02:25:42.725Z,97.36
2018-08-19T02:28:10.438Z,97.11
2018-08-19T02:30:52.764Z,97.19
2018-08-19T02:33:20.850Z,97.64
2018-08-19T02:36:08.392Z,97.26
2018-08-19T02:38:36.727Z,97.66
2018-08-19T02:41:04.377Z,98.07
2018-08-19T02:43:31.761Z,98.07
2018-08-19T02:45:58.744Z,97.80
2018-08-19T02:48:43.262Z,97.65
2018-08-19T02:51:12.044Z,98.38
2018-08-19T02:53:39.354Z,98.54
2018-08-19T02:56:06.541Z,98.37
2018-08-19T02:58:33.531Z,98.22
2018-08-19T03:01:00.553Z,98.61
2018-08-19T03:03:27.524Z,99.06
2018-08-19T03:06:00.297Z,99.02
2018-08-19T03:08:28.288Z,99.31
2018-08-19T03:10:55.671Z,99.76
2018-08-19T03:13:22.709Z,99.65
2018-08-19T03:15:55.409Z,99.74
2018-08-19T03:18:22.518Z,99.53
2018-08-19T03:20:49.592Z,99.25
2018-08-19T03:23:16.668Z,99.32
2018-08-19T03:25:43.671Z,99.85
2018-08-19T03:28:10.696Z,99.40
2018-08-19T03:30:39.448Z,99.92
2018-08-19T03:33:07.120Z,99.41
2018-08-19T03:35:34.149Z,99.83
2018-08-19T03:38:05.774Z,99.31
2018-08-19T03:40:32.720Z,99.33
2018-08-19T03:42:59.806Z,99.95
2018-08-19T03:45:29.788Z,99.75
2018-08-19T03:47:56.780Z,100.00
2018-08-19T03:50:25.873Z,100.00
2018-08-19T03:52:53.603Z,99.63
2018-08-19T03:55:24.752Z,99.89
2018-08-19T03:57:52.536Z,99.29
2018-08-19T04:00:21.748Z,99.38
2018-08-19T04:02:48.779Z,99.89
2018-08-19T04:05:15.802Z,99.67
2018-08-19T04:07:43.624Z,99.73
2018-08-19T04:10:10.939Z,100.00
2018-08-19T04:12:37.916Z,99.78
2018-08-19T04:15:07.019Z,99.46
2018-08-19T04:17:34.353Z,99.52
2018-08-19T04:20:01.343Z,100.00
2018-08-19T04:22:28.331Z,99.72
2018-08-19T04:24:55.393Z,99.72
2018-08-19T04:27:22.483Z,99.80
2018-08-19T04:29:49.864Z,99.42
2018-08-19T04:32:22.531Z,100.00
2018-08-19T04:34:49.804Z,99.38
2018-08-19T04:37:16.794Z,99.64
2018-08-19T04:39:43.805Z,99.55
2018-08-19T04:42:10.847Z,98.91
2018-08-19T04:44:37.786Z,98.65
2018-08-19T04:47:19.180Z,98.82
2018-08-19T04:49:46.164Z,98.34
2018-08-19T04:52:13.807Z,98.49
2018-08-19T04:54:41.020Z,98.47
2018-08-19T04:57:08.002Z,98.31
2018-08-19T04:59:35.005Z,97.85
2018-08-19T05:02:02.309Z,97.85
2018-08-19T05:04:29.243Z,97.82
2018-08-19T05:06:56.223Z,98.59
2018-08-19T05:09:23.247Z,96.86
2018-08-19T05:11:50.300Z,97.27
2018-08-19T05:14:17.351Z,96.22
2018-08-19T05:16:44.659Z,95.84
2018-08-19T05:19:11.645Z,95.04
2018-08-19T05:21:38.736Z,94.76
2018-08-19T05:24:05.830Z,94.33
2018-08-19T05:26:32.819Z,94.22
2018-08-19T05:29:08.509Z,94.57
2018-08-19T05:31:46.745Z,94.35
2018-08-19T05:34:32.975Z,95.24
2018-08-19T05:37:00.343Z,94.76
2018-08-19T05:39:27.604Z,94.04
2018-08-19T05:42:02.941Z,93.87
2018-08-19T05:44:31.952Z,93.14
2018-08-19T05:47:03.267Z,92.04
2018-08-19T05:49:30.256Z,90.80
2018-08-19T05:51:59.668Z,90.85
2018-08-19T05:54:26.820Z,90.99
2018-08-19T05:56:57.859Z,90.82
2018-08-19T05:59:24.890Z,90.33
2018-08-19T06:01:51.955Z,89.85
2018-08-19T06:04:19.088Z,89.32
2018-08-19T06:06:46.416Z,89.86
2018-08-19T06:09:13.479Z,89.47
2018-08-19T06:11:40.500Z,89.99
2018-08-19T06:14:07.507Z,90.23
2018-08-19T06:16:34.579Z,90.33
2018-08-19T06:19:01.592Z,89.90
2018-08-19T06:21:28.593Z,89.89
2018-08-19T06:23:56.160Z,89.49
2018-08-19T06:26:27.829Z,90.01
2018-08-19T06:28:54.817Z,89.48
2018-08-19T06:31:21.968Z,89.85
2018-08-19T06:33:49.109Z,89.15
2018-08-19T06:36:16.529Z,89.11
2018-08-19T06:38:43.524Z,89.49
2018-08-19T06:41:10.500Z,88.32
2018-08-19T06:43:37.679Z,87.99
2018-08-19T06:46:04.687Z,87.55
2018-08-19T06:48:31.871Z,87.38
2018-08-19T06:50:59.139Z,87.40
2018-08-19T06:53:29.242Z,87.88
2018-08-19T06:55:56.582Z,87.36
2018-08-19T06:58:24.845Z,87.55
2018-08-19T07:00:51.964Z,86.68
2018-08-19T07:03:19.060Z,86.77
2018-08-19T07:06:00.860Z,86.03
2018-08-19T07:08:27.936Z,86.28
2018-08-19T07:10:55.331Z,85.84
2018-08-19T07:13:22.468Z,85.76
2018-08-19T07:15:49.492Z,85.21
2018-08-19T07:18:16.532Z,85.13
2018-08-19T07:20:44.248Z,85.26
2018-08-19T07:23:12.261Z,84.23
2018-08-19T07:25:42.033Z,83.77
2018-08-19T07:28:10.204Z,83.17
2018-08-19T07:30:37.448Z,82.85
2018-08-19T07:33:05.044Z,82.89
2018-08-19T07:35:32.084Z,82.20
2018-08-19T07:37:59.127Z,81.27
2018-08-19T07:40:27.740Z,81.48
2018-08-19T07:42:56.285Z,81.74
2018-08-19T07:45:24.861Z,81.92
2018-08-19T07:47:52.208Z,81.63
2018-08-19T07:50:19.433Z,81.81
2018-08-19T07:52:46.686Z,80.99
2018-08-19T07:55:14.076Z,81.59
2018-08-19T07:57:42.068Z,81.31
2018-08-19T08:00:09.936Z,81.42
2018-08-19T08:02:37.107Z,81.35
2018-08-19T08:05:05.120Z,81.40
2018-08-19T08:07:32.715Z,81.13
2018-08-19T08:09:59.914Z,80.57
2018-08-19T08:12:29.305Z,79.86
2018-08-19T08:14:57.398Z,79.84
2018-08-19T08:17:25.612Z,80.32
2018-08-19T08:20:04.274Z,79.96
2018-08-19T08:22:32.486Z,80.88
2018-08-19T08:24:59.864Z,80.39
2018-08-19T08:27:27.064Z,79.78
2018-08-19T08:29:54.177Z,79.34
2018-08-19T08:32:21.531Z,79.56
2018-08-19T08:34:49.230Z,78.05
2018-08-19T08:37:16.340Z,79.18
2018-08-19T08:39:43.402Z,78.11
2018-08-19T08:42:10.468Z,78.28
2018-08-19T08:44:37.796Z,77.68
2018-08-19T08:47:07.782Z,77.08
2018-08-19T08:49:40.518Z,75.93
2018-08-19T08:52:14.425Z,77.07
2018-08-19T08:54:49.267Z,76.90
2018-08-19T08:57:17.764Z,76.41
2018-08-19T08:59:44.802Z,76.47
2018-08-19T09:02:12.100Z,76.44
2018-08-19T09:04:39.453Z,76.71
2018-08-19T09:07:06.647Z,77.49
2018-08-19T09:09:33.870Z,76.55
2018-08-19T09:12:00.950Z,77.30
2018-08-19T09:14:28.652Z,76.91
2018-08-19T09:16:56.119Z,77.10
2018-08-19T09:19:23.463Z,76.17
2018-08-19T09:21:50.749Z,77.05
2018-08-19T09:24:17.812Z,76.79
2018-08-19T09:27:24.374Z,76.91
2018-08-19T09:40:30.594Z,77.02
2018-08-19T09:44:00.995Z,76.82
2018-08-19T09:46:58.272Z,75.56
2018-08-19T09:50:31.056Z,74.55
2018-08-19T09:52:59.379Z,74.64
2018-08-19T09:55:32.888Z,74.70
2018-08-19T10:01:39.429Z,74.52
2018-08-19T10:04:26.947Z,73.91
2018-08-19T10:07:18.350Z,74.50
2018-08-19T10:09:48.167Z,74.57
2018-08-19T10:12:16.675Z,75.22
2018-08-19T10:14:47.323Z,75.53
2018-08-19T10:17:20.300Z,75.11
2018-08-19T10:19:49.935Z,75.45
2018-08-19T10:22:41.107Z,75.79
2018-08-19T10:33:40.153Z,75.00
2018-08-19T10:47:45.932Z,73.57
2018-08-19T10:54:15.839Z,73.01
2018-08-19T10:56:42.944Z,71.79
2018-08-19T10:59:13.527Z,70.14
2018-08-19T11:01:40.495Z,69.82
2018-08-19T11:04:07.623Z,69.93
2018-08-19T11:06:34.695Z,68.57
2018-08-19T11:09:01.847Z,67.87
2018-08-19T11:11:32.397Z,68.05
2018-08-19T11:13:59.596Z,68.52
2018-08-19T11:16:26.715Z,66.69
2018-08-19T11:18:53.816Z,66.69
2018-08-19T11:21:27.605Z,67.67
2018-08-19T11:23:55.606Z,67.16
2018-08-19T11:26:22.868Z,67.18
2018-08-19T11:28:55.753Z,67.05
2018-08-19T11:31:28.433Z,67.91
2018-08-19T11:34:00.108Z,66.83
2018-08-19T11:36:33.709Z,66.98
2018-08-19T11:39:00.728Z,65.50
2018-08-19T11:41:31.261Z,65.04
2018-08-19T11:43:58.766Z,63.24
2018-08-19T11:46:25.767Z,61.81
2018-08-19T11:48:58.468Z,62.37
2018-08-19T11:51:40.728Z,62.35
2018-08-19T11:54:08.872Z,62.51
2018-08-19T11:56:36.013Z,61.18
2018-08-19T11:59:03.117Z,61.31
2018-08-19T12:01:30.200Z,62.17
2018-08-19T12:04:01.186Z,61.88
2018-08-19T12:06:30.008Z,61.41
2018-08-19T12:08:58.257Z,60.69
2018-08-19T12:11:31.359Z,61.68
2018-08-19T12:14:01.888Z,59.80
2018-08-19T12:16:29.356Z,60.34
2018-08-19T12:19:08.991Z,59.46
2018-08-19T12:21:43.668Z,61.20
2018-08-19T12:24:18.208Z,59.58
2018-08-19T12:26:45.217Z,58.98
2018-08-19T12:29:12.426Z,57.79
2018-08-19T12:31:39.413Z,60.12
2018-08-19T12:34:06.446Z,60.36
2018-08-19T12:36:33.455Z,59.87
2018-08-19T12:39:00.471Z,59.18
2018-08-19T12:41:27.724Z,58.67
2018-08-19T12:43:59.001Z,57.51
2018-08-19T12:46:26.081Z,57.80
2018-08-19T12:48:53.092Z,57.69
2018-08-19T12:51:20.149Z,55.10
2018-08-19T12:53:47.288Z,55.71
2018-08-19T12:56:14.291Z,54.62
2018-08-19T12:58:41.264Z,53.40
2018-08-19T13:01:08.668Z,55.03
2018-08-19T13:03:35.693Z,54.20
2018-08-19T13:06:05.313Z,53.23
2018-08-19T13:08:32.331Z,54.77
2018-08-19T13:11:01.303Z,53.09
2018-08-19T13:13:28.452Z,53.38
2018-08-19T13:15:55.574Z,52.40
2018-08-19T13:18:28.671Z,51.99
2018-08-19T13:21:00.775Z,53.36
2018-08-19T13:23:28.777Z,53.04
2018-08-19T13:25:55.845Z,51.89
2018-08-19T13:28:23.024Z,53.69
2018-08-19T13:30:50.069Z,52.85
2018-08-19T13:33:17.065Z,52.19
2018-08-19T13:35:44.064Z,52.07
2018-08-19T13:38:16.043Z,52.03
2018-08-19T13:40:43.053Z,50.48
2018-08-19T13:43:10.086Z,49.28
2018-08-19T13:45:37.064Z,49.68
2018-08-19T13:48:04.114Z,49.18
2018-08-19T13:50:31.184Z,48.76
2018-08-19T13:52:58.262Z,48.49
2018-08-19T13:55:25.468Z,47.34
2018-08-19T13:57:52.489Z,47.94
2018-08-19T14:00:21.712Z,47.39
2018-08-19T14:02:49.180Z,47.35
2018-08-19T14:05:16.623Z,47.24
2018-08-19T14:07:44.491Z,47.60
2018-08-19T14:10:13.705Z,47.96
2018-08-19T14:12:40.998Z,46.13
2018-08-19T14:15:08.027Z,46.25
2018-08-19T14:17:35.404Z,47.19
2018-08-19T14:20:02.622Z,46.26
2018-08-19T14:22:30.267Z,46.36
2018-08-19T14:24:57.292Z,46.64
2018-08-19T14:27:24.370Z,45.89
2018-08-19T14:29:51.535Z,45.51
2018-08-19T14:32:31.032Z,45.82
2018-08-19T14:34:59.751Z,45.61
2018-08-19T14:37:27.059Z,47.03
2018-08-19T14:39:54.448Z,46.35
2018-08-19T14:42:22.634Z,47.32
2018-08-19T14:44:49.831Z,46.94
2018-08-19T14:47:16.853Z,47.53
2018-08-19T14:49:44.015Z,48.09
2018-08-19T14:52:11.140Z,47.63
2018-08-19T14:54:38.135Z,47.69
2018-08-19T14:57:05.223Z,47.75
2018-08-19T14:59:32.672Z,48.20
2018-08-19T15:01:59.667Z,48.26
2018-08-19T15:04:27.014Z,47.73
2018-08-19T15:06:54.017Z,49.14
2018-08-19T15:09:26.808Z,47.20
2018-08-19T15:11:58.404Z,47.67
2018-08-19T15:14:25.784Z,47.57
2018-08-19T15:16:53.447Z,46.24
2018-08-19T15:19:20.923Z,47.82
2018-08-19T15:21:50.295Z,47.50
2018-08-19T15:24:17.744Z,47.72
2018-08-19T15:26:45.235Z,47.45
2018-08-19T15:29:21.345Z,48.24
2018-08-19T15:31:48.648Z,47.69
2018-08-19T15:34:22.584Z,48.31
2018-08-19T15:36:50.133Z,46.53
2018-08-19T15:39:17.183Z,47.12
2018-08-19T15:41:44.747Z,47.01
2018-08-19T15:44:12.328Z,46.62
2018-08-19T15:46:39.810Z,47.27
2018-08-19T15:49:09.066Z,47.71
2018-08-19T15:51:36.266Z,48.06
2018-08-19T15:54:03.320Z,48.11
2018-08-19T15:56:30.674Z,47.59
2018-08-19T15:58:59.948Z,48.16
2018-08-19T16:01:29.299Z,48.85
2018-08-19T16:04:16.827Z,48.44
2018-08-19T16:06:46.654Z,48.42
2018-08-19T16:09:17.538Z,48.68
2018-08-19T16:11:46.099Z,49.04
2018-08-19T16:14:19.866Z,48.71
2018-08-19T16:16:47.320Z,48.42
2018-08-19T16:19:14.337Z,48.77
2018-08-19T16:21:41.659Z,49.29
2018-08-19T16:24:09.216Z,50.77
2018-08-19T16:26:36.624Z,50.35
2018-08-19T16:29:04.522Z,50.73
2018-08-19T16:31:31.571Z,50.14
2018-08-19T16:33:58.705Z,51.13
2018-08-19T16:36:26.067Z,51.36
2018-08-19T16:38:54.036Z,50.98
2018-08-19T16:41:21.482Z,50.63
2018-08-19T16:43:48.495Z,50.42
2018-08-19T16:46:15.582Z,50.74
2018-08-19T16:48:42.664Z,52.21
2018-08-19T16:51:09.867Z,51.46
2018-08-19T16:53:36.861Z,52.12
2018-08-19T16:56:03.914Z,52.20
2018-08-19T16:58:31.352Z,51.64
2018-08-19T17:00:58.492Z,51.33
2018-08-19T17:03:38.420Z,51.42
2018-08-19T17:06:10.603Z,51.63
2018-08-19T17:08:38.259Z,51.59
2018-08-19T17:11:05.727Z,51.91
2018-08-19T17:13:32.960Z,52.38
2018-08-19T17:16:00.408Z,51.93
2018-08-19T17:18:27.443Z,52.39
2018-08-19T17:20:54.479Z,52.20
2018-08-19T17:23:22.855Z,52.26
2018-08-19T17:25:50.510Z,52.59
2018-08-19T17:28:19.584Z,52.87
2018-08-19T17:30:47.562Z,52.96
2018-08-19T17:33:14.820Z,52.78
2018-08-19T17:35:46.040Z,53.15
2018-08-19T17:38:15.923Z,53.03
2018-08-19T17:40:43.074Z,53.14
2018-08-19T17:43:10.649Z,53.40
2018-08-19T17:45:38.073Z,52.91
2018-08-19T17:48:05.345Z,53.79
2018-08-19T17:50:32.381Z,53.77
2018-08-19T17:53:01.068Z,54.21
2018-08-19T17:55:28.110Z,53.82
2018-08-19T17:57:56.771Z,54.63
2018-08-19T18:00:24.110Z,55.06
2018-08-19T18:02:51.516Z,54.88
2018-08-19T18:05:19.000Z,55.31
2018-08-19T18:07:48.828Z,55.96
2018-08-19T18:10:15.942Z,55.10
2018-08-19T18:12:43.340Z,56.58
2018-08-19T18:15:11.332Z,58.39
2018-08-19T18:17:39.144Z,60.47
2018-08-19T18:30:16.968Z,60.53
2018-08-19T18:32:44.495Z,65.19
2018-08-19T18:35:11.526Z,64.83
2018-08-19T18:37:39.069Z,65.43
2018-08-19T18:40:06.342Z,65.89
2018-08-19T18:42:36.324Z,66.19
2018-08-19T18:45:12.395Z,65.85
2018-08-19T18:48:03.583Z,67.46
2018-08-19T18:50:31.281Z,68.83
2018-08-19T18:52:58.351Z,67.70
2018-08-19T18:55:25.543Z,67.58
2018-08-19T18:57:54.079Z,67.57
2018-08-19T19:00:23.046Z,67.68
2018-08-19T19:02:59.267Z,68.34
2018-08-19T19:05:34.714Z,68.40
2018-08-19T19:08:07.868Z,68.74
2018-08-19T19:10:35.079Z,68.74
2018-08-19T19:13:02.220Z,69.13
2018-08-19T19:15:31.042Z,69.15
2018-08-19T19:17:59.129Z,70.35
2018-08-19T19:20:26.111Z,70.02
2018-08-19T19:22:58.849Z,70.51
2018-08-19T19:25:30.415Z,70.85
2018-08-19T19:27:57.735Z,71.02
2018-08-19T19:30:24.860Z,71.27
2018-08-19T19:32:52.139Z,71.39
2018-08-19T19:35:19.234Z,71.47
2018-08-19T19:37:47.127Z,72.08
2018-08-19T19:40:14.596Z,72.75
2018-08-19T19:42:41.684Z,72.95
2018-08-19T19:45:09.093Z,72.31
2018-08-19T19:47:36.060Z,72.69
2018-08-19T19:50:03.409Z,73.21
2018-08-19T19:52:32.135Z,73.07
2018-08-19T19:55:00.523Z,73.28
2018-08-19T19:57:28.576Z,73.02
2018-08-19T19:59:56.305Z,73.35
2018-08-19T20:02:30.298Z,73.23
2018-08-19T20:04:59.195Z,73.67
2018-08-19T20:07:27.779Z,73.52
2018-08-19T20:09:55.236Z,73.51
2018-08-19T20:12:28.680Z,74.32
2018-08-19T20:14:56.251Z,73.99
2018-08-19T20:17:23.261Z,74.76
2018-08-19T20:19:50.909Z,74.34
2018-08-19T20:22:18.939Z,74.99
2018-08-19T20:24:46.416Z,75.45
2018-08-19T20:27:13.795Z,75.00
2018-08-19T20:29:40.820Z,75.52
2018-08-19T20:32:08.379Z,75.29
2018-08-19T20:34:35.743Z,75.31
2018-08-19T20:37:02.817Z,75.17
2018-08-19T20:39:29.841Z,75.43
2018-08-19T20:41:57.188Z,75.92
2018-08-19T20:44:24.620Z,75.83
2018-08-19T20:46:57.424Z,75.54
2018-08-19T20:49:26.854Z,75.47
2018-08-19T20:51:54.995Z,75.56
2018-08-19T20:54:22.347Z,75.69
2018-08-19T20:56:49.855Z,75.35
2018-08-19T20:59:25.631Z,75.13
2018-08-19T21:01:53.119Z,75.73
2018-08-19T21:04:20.096Z,75.59
2018-08-19T21:06:47.088Z,75.66
2018-08-19T21:09:14.156Z,75.96
2018-08-19T21:11:41.250Z,75.12
2018-08-19T21:14:08.470Z,75.43
2018-08-19T21:16:35.784Z,75.14
2018-08-19T21:19:02.818Z,75.33
2018-08-19T21:21:30.424Z,75.00
2018-08-19T21:23:57.460Z,74.81
2018-08-19T21:26:24.487Z,75.37
2018-08-19T21:28:57.508Z,75.33
2018-08-19T21:31:24.519Z,75.29
2018-08-19T21:33:51.833Z,75.18
2018-08-19T21:36:19.008Z,75.10
2018-08-19T21:38:46.015Z,74.71
2018-08-19T21:41:13.332Z,75.45
2018-08-19T21:43:40.332Z,74.76
2018-08-19T21:46:07.647Z,75.00
2018-08-19T21:48:35.567Z,75.47
2018-08-19T21:51:02.793Z,75.62
2018-08-19T21:53:29.940Z,75.89
2018-08-19T21:55:57.380Z,75.43
2018-08-19T21:58:53.017Z,75.37
2018-08-19T22:01:20.935Z,75.13
2018-08-19T22:03:47.972Z,75.60
2018-08-19T22:06:15.196Z,75.68
2018-08-19T22:08:42.922Z,75.72
2018-08-19T22:11:10.012Z,75.79
2018-08-19T22:13:37.564Z,75.61
2018-08-19T22:16:04.903Z,76.29
2018-08-19T22:18:32.448Z,76.23
2018-08-19T22:21:22.483Z,76.51
2018-08-19T22:23:51.028Z,75.85
2018-08-19T22:26:19.373Z,76.32
2018-08-19T22:29:01.291Z,76.55
2018-08-19T22:31:28.763Z,76.29
2018-08-19T22:33:57.373Z,76.60
2018-08-19T22:36:24.411Z,76.73
2018-08-19T22:38:52.153Z,76.78
2018-08-19T22:41:22.535Z,77.04
2018-08-19T22:43:57.195Z,77.62
2018-08-19T22:46:24.889Z,77.82
2018-08-19T22:48:52.525Z,78.14
2018-08-19T22:51:19.711Z,77.58
2018-08-19T22:53:48.734Z,78.26
2018-08-19T22:56:15.739Z,77.81
2018-08-19T22:58:42.735Z,78.01
2018-08-19T23:01:09.773Z,77.99
2018-08-19T23:03:36.776Z,77.94
2018-08-19T23:06:03.823Z,78.26
2018-08-19T23:08:31.890Z,78.58
2018-08-19T23:10:59.915Z,78.51
2018-08-19T23:13:38.589Z,78.94
2018-08-19T23:16:07.335Z,79.02
2018-08-19T23:18:34.787Z,79.59
2018-08-19T23:21:01.831Z,79.19
2018-08-19T23:23:29.905Z,80.16
2018-08-19T23:25:56.964Z,80.03
2018-08-19T23:28:24.743Z,80.62
2018-08-19T23:30:51.840Z,80.86
2018-08-19T23:33:19.211Z,81.15
2018-08-19T23:35:46.200Z,81.30
2018-08-19T23:38:13.416Z,81.21
2018-08-19T23:40:40.500Z,81.39
2018-08-19T23:43:07.701Z,81.99
2018-08-19T23:45:35.077Z,82.49
2018-08-19T23:48:02.347Z,82.84
2018-08-19T23:50:29.453Z,82.03
2018-08-19T23:52:56.643Z,82.31
2018-08-19T23:55:23.871Z,82.60
2018-08-19T23:57:50.863Z,83.42
